createdAt,value
2018-04-15T00:00:57.235Z,10.90
2018-04-15T00:03:23.534Z,10.80
2018-04-15T00:05:49.865Z,10.90
2018-04-15T00:08:16.130Z,10.90
2018-04-15T00:10:42.541Z,10.90
2018-04-15T00:13:09.624Z,10.80
2018-04-15T00:15:35.938Z,10.80
2018-04-15T00:18:02.251Z,10.80
2018-04-15T00:20:29.294Z,10.80
2018-04-15T00:22:56.358Z,10.80
2018-04-15T00:25:22.658Z,10.80
2018-04-15T00:27:48.944Z,10.80
2018-04-15T00:30:16.113Z,10.80
2018-04-15T00:32:42.393Z,10.80
2018-04-15T00:35:09.407Z,10.80
2018-04-15T00:37:35.722Z,10.70
2018-04-15T00:40:02.051Z,10.70
2018-04-15T00:42:28.307Z,10.60
2018-04-15T00:44:54.591Z,10.50
2018-04-15T00:47:20.873Z,10.50
2018-04-15T00:49:47.179Z,10.40
2018-04-15T00:52:14.212Z,10.40
2018-04-15T00:54:40.473Z,10.40
2018-04-15T00:57:06.755Z,10.40
2018-04-15T00:59:33.099Z,10.40
2018-04-15T01:01:59.359Z,10.30
2018-04-15T01:04:25.629Z,10.30
2018-04-15T01:06:52.665Z,10.30
2018-04-15T01:09:19.763Z,10.30
2018-04-15T01:11:46.105Z,10.30
2018-04-15T01:14:12.366Z,10.30
2018-04-15T01:16:38.679Z,10.30
2018-04-15T01:19:04.989Z,10.20
2018-04-15T01:21:31.270Z,10.20
2018-04-15T01:23:58.308Z,10.20
2018-04-15T01:26:25.315Z,10.20
2018-04-15T01:28:51.662Z,10.10
2018-04-15T01:31:18.030Z,10.10
2018-04-15T01:33:45.089Z,10.10
2018-04-15T01:36:11.451Z,10.10
2018-04-15T01:38:37.763Z,10.10
2018-04-15T01:41:04.080Z,10.10
2018-04-15T01:43:31.075Z,10.20
2018-04-15T01:45:57.381Z,10.20
2018-04-15T01:48:23.665Z,10.20
2018-04-15T01:50:49.972Z,10.30
2018-04-15T01:53:16.987Z,10.40
2018-04-15T01:55:43.256Z,10.30
2018-04-15T01:58:09.571Z,10.30
2018-04-15T02:00:35.836Z,10.30
2018-04-15T02:03:02.894Z,10.20
2018-04-15T02:05:29.906Z,10.20
2018-04-15T02:07:56.200Z,10.20
2018-04-15T02:10:22.506Z,10.20
2018-04-15T02:12:49.612Z,10.00
2018-04-15T02:15:15.920Z,10.00
2018-04-15T02:17:42.208Z,10.00
2018-04-15T02:20:09.266Z,10.00
2018-04-15T02:22:35.534Z,10.00
2018-04-15T02:25:01.822Z,10.00
2018-04-15T02:27:28.103Z,9.90
2018-04-15T02:29:54.407Z,9.90
2018-04-15T02:32:20.707Z,9.90
2018-04-15T02:34:47.755Z,9.80
2018-04-15T02:37:14.800Z,9.80
2018-04-15T02:39:41.852Z,9.80
2018-04-15T02:42:08.928Z,9.80
2018-04-15T02:44:35.215Z,9.80
2018-04-15T02:47:01.494Z,9.80
2018-04-15T02:49:27.803Z,9.80
2018-04-15T02:51:54.059Z,9.80
2018-04-15T02:54:20.391Z,9.80
2018-04-15T02:56:46.754Z,9.80
2018-04-15T02:59:13.038Z,9.80
2018-04-15T03:01:39.368Z,9.80
2018-04-15T03:04:05.696Z,9.70
2018-04-15T03:06:32.012Z,9.70
2018-04-15T03:08:59.081Z,9.80
2018-04-15T03:11:25.367Z,9.80
2018-04-15T03:13:51.653Z,9.80
2018-04-15T03:16:17.934Z,9.80
2018-04-15T03:18:44.224Z,9.80
2018-04-15T03:21:10.491Z,9.80
2018-04-15T03:23:36.799Z,9.80
2018-04-15T03:26:03.084Z,9.80
2018-04-15T03:28:29.552Z,9.70
2018-04-15T03:30:56.364Z,9.70
2018-04-15T03:33:22.661Z,9.60
2018-04-15T03:35:48.935Z,9.60
2018-04-15T03:38:15.283Z,9.50
2018-04-15T03:40:41.547Z,9.50
2018-04-15T03:43:07.852Z,9.40
2018-04-15T03:45:34.137Z,9.40
2018-04-15T03:48:01.135Z,9.40
2018-04-15T03:50:27.436Z,9.30
2018-04-15T03:52:53.716Z,9.40
2018-04-15T03:55:19.981Z,9.30
2018-04-15T03:57:46.269Z,9.30
2018-04-15T04:00:12.605Z,9.30
2018-04-15T04:02:38.866Z,9.20
2018-04-15T04:05:05.158Z,9.20
2018-04-15T04:07:31.424Z,9.20
2018-04-15T04:09:58.450Z,9.10
2018-04-15T04:12:24.774Z,9.10
2018-04-15T04:14:51.173Z,9.20
2018-04-15T04:17:17.458Z,9.10
2018-04-15T04:20:02.947Z,9.20
2018-04-15T04:22:48.775Z,9.10
2018-04-15T04:25:33.765Z,9.00
2018-04-15T04:28:01.255Z,9.10
2018-04-15T04:30:28.253Z,9.10
2018-04-15T04:32:54.630Z,9.10
2018-04-15T04:35:21.640Z,9.20
2018-04-15T04:37:47.946Z,9.10
2018-04-15T04:40:14.243Z,9.20
2018-04-15T04:42:40.556Z,9.30
2018-04-15T04:45:06.879Z,9.30
2018-04-15T04:47:33.167Z,9.30
2018-04-15T04:50:00.448Z,9.40
2018-04-15T04:52:26.750Z,9.50
2018-04-15T04:54:53.043Z,9.60
2018-04-15T04:57:20.119Z,9.80
2018-04-15T04:59:46.424Z,9.80
2018-04-15T05:02:13.440Z,10.00
2018-04-15T05:04:39.839Z,10.00
2018-04-15T05:07:06.119Z,10.10
2018-04-15T05:09:32.436Z,10.10
2018-04-15T05:11:58.827Z,10.20
2018-04-15T05:14:25.185Z,10.20
2018-04-15T05:16:51.483Z,10.20
2018-04-15T05:19:17.805Z,10.20
2018-04-15T05:21:44.953Z,10.20
2018-04-15T05:24:11.954Z,10.30
2018-04-15T05:26:38.234Z,10.30
2018-04-15T05:29:04.500Z,10.50
2018-04-15T05:31:30.795Z,10.60
2018-04-15T05:33:57.846Z,10.80
2018-04-15T05:36:25.147Z,10.80
2018-04-15T05:38:51.466Z,10.80
2018-04-15T05:41:17.743Z,10.90
2018-04-15T05:43:44.782Z,11.20
2018-04-15T05:46:11.865Z,11.40
2018-04-15T05:48:38.195Z,11.40
2018-04-15T05:51:04.538Z,11.50
2018-04-15T05:53:31.876Z,11.50
2018-04-15T05:55:58.219Z,11.80
2018-04-15T05:58:24.525Z,12.00
2018-04-15T06:00:51.586Z,12.60
2018-04-15T06:03:17.953Z,12.50
2018-04-15T06:05:44.243Z,12.80
2018-04-15T06:08:11.576Z,13.50
2018-04-15T06:10:37.962Z,13.50
2018-04-15T06:13:04.294Z,13.80
2018-04-15T06:15:30.623Z,14.00
2018-04-15T06:17:56.927Z,14.10
2018-04-15T06:20:23.219Z,14.10
2018-04-15T06:22:49.553Z,14.40
2018-04-15T06:25:15.884Z,14.10
2018-04-15T06:27:42.189Z,14.20
2018-04-15T06:30:08.478Z,14.20
2018-04-15T06:32:34.843Z,14.60
2018-04-15T06:35:01.118Z,14.80
2018-04-15T06:37:28.174Z,15.00
2018-04-15T06:39:55.196Z,15.00
2018-04-15T06:42:21.489Z,14.90
2018-04-15T06:44:47.744Z,15.00
2018-04-15T06:47:14.067Z,15.00
2018-04-15T06:49:40.351Z,15.20
2018-04-15T06:52:07.434Z,15.60
2018-04-15T06:54:33.717Z,15.60
2018-04-15T06:57:00.741Z,15.70
2018-04-15T06:59:27.141Z,15.70
2018-04-15T07:01:53.418Z,15.50
2018-04-15T07:04:19.729Z,15.80
2018-04-15T07:06:46.011Z,16.10
2018-04-15T07:09:13.250Z,16.20
2018-04-15T07:11:40.293Z,16.40
2018-04-15T07:14:07.384Z,16.60
2018-04-15T07:16:34.109Z,16.60
2018-04-15T07:19:01.237Z,16.60
2018-04-15T07:21:28.304Z,17.20
2018-04-15T07:23:54.619Z,17.20
2018-04-15T07:26:21.735Z,17.80
2018-04-15T07:28:48.057Z,17.70
2018-04-15T07:31:14.402Z,17.40
2018-04-15T07:33:40.696Z,17.60
2018-04-15T07:36:07.015Z,18.00
2018-04-15T07:38:33.368Z,17.80
2018-04-15T07:40:59.743Z,18.10
2018-04-15T07:43:26.870Z,18.60
2018-04-15T07:45:53.160Z,18.60
2018-04-15T07:48:19.468Z,18.30
2018-04-15T07:50:46.511Z,19.00
2018-04-15T07:53:13.577Z,18.70
2018-04-15T07:55:39.833Z,18.80
2018-04-15T07:58:06.111Z,18.80
2018-04-15T08:00:33.165Z,18.50
2018-04-15T08:03:00.218Z,18.20
2018-04-15T08:05:26.534Z,18.20
2018-04-15T08:07:52.890Z,18.80
2018-04-15T08:10:19.217Z,19.10
2018-04-15T08:12:46.249Z,18.80
2018-04-15T08:15:13.394Z,18.60
2018-04-15T08:17:40.414Z,18.60
2018-04-15T08:20:06.695Z,18.50
2018-04-15T08:22:32.996Z,18.40
2018-04-15T08:24:59.351Z,18.50
2018-04-15T08:27:26.454Z,18.70
2018-04-15T08:29:53.594Z,18.70
2018-04-15T08:32:19.933Z,18.60
2018-04-15T08:34:46.255Z,18.50
2018-04-15T08:37:12.553Z,18.90
2018-04-15T08:39:38.899Z,19.00
2018-04-15T08:42:05.231Z,19.10
2018-04-15T08:44:31.527Z,19.30
2018-04-15T08:46:58.572Z,19.60
2018-04-15T08:49:25.610Z,19.90
2018-04-15T08:51:51.928Z,19.80
2018-04-15T08:54:18.249Z,20.10
2018-04-15T08:56:44.564Z,20.10
2018-04-15T08:59:10.857Z,19.90
2018-04-15T09:01:37.478Z,19.50
2018-04-15T09:04:03.800Z,19.90
2018-04-15T09:06:30.228Z,20.30
2018-04-15T09:08:57.363Z,20.60
2018-04-15T09:11:23.663Z,20.60
2018-04-15T09:13:50.217Z,21.00
2018-04-15T09:16:16.703Z,21.10
2018-04-15T09:18:43.837Z,21.30
2018-04-15T09:21:10.129Z,21.30
2018-04-15T09:23:36.488Z,21.40
2018-04-15T09:26:02.842Z,21.40
2018-04-15T09:28:29.992Z,21.70
2018-04-15T09:31:03.263Z,21.70
2018-04-15T09:33:29.557Z,21.70
2018-04-15T09:35:55.872Z,21.70
2018-04-15T09:38:22.150Z,21.40
2018-04-15T09:40:48.513Z,21.70
2018-04-15T09:43:15.659Z,22.00
2018-04-15T09:45:42.705Z,21.60
2018-04-15T09:48:09.773Z,22.10
2018-04-15T09:50:36.064Z,22.10
2018-04-15T09:53:02.360Z,21.60
2018-04-15T09:55:28.658Z,21.90
2018-04-15T09:57:54.955Z,21.40
2018-04-15T10:00:21.371Z,21.50
2018-04-15T10:02:47.663Z,21.20
2018-04-15T10:05:13.933Z,20.90
2018-04-15T10:07:40.208Z,21.00
2018-04-15T10:10:07.266Z,21.60
2018-04-15T10:12:33.622Z,21.60
2018-04-15T10:14:59.950Z,22.00
2018-04-15T10:17:26.225Z,22.30
2018-04-15T10:19:52.549Z,22.30
2018-04-15T10:22:18.821Z,22.10
2018-04-15T10:24:45.114Z,22.30
2018-04-15T10:27:11.434Z,22.40
2018-04-15T10:29:37.766Z,22.20
2018-04-15T10:32:04.088Z,21.80
2018-04-15T10:34:30.359Z,22.20
2018-04-15T10:36:57.442Z,23.10
2018-04-15T10:39:23.743Z,23.00
2018-04-15T10:41:50.782Z,23.60
2018-04-15T10:44:17.841Z,23.90
2018-04-15T10:46:44.912Z,23.60
2018-04-15T10:49:11.442Z,23.60
2018-04-15T10:51:37.785Z,23.40
2018-04-15T10:54:04.058Z,23.80
2018-04-15T10:56:30.499Z,23.70
2018-04-15T10:58:56.797Z,24.10
2018-04-15T11:01:23.236Z,25.10
2018-04-15T11:03:49.529Z,24.40
2018-04-15T11:06:15.866Z,24.20
2018-04-15T11:08:42.213Z,23.70
2018-04-15T11:11:09.228Z,24.20
2018-04-15T11:13:36.354Z,24.40
2018-04-15T11:16:02.643Z,24.30
2018-04-15T11:18:28.950Z,24.60
2018-04-15T11:20:55.282Z,24.60
2018-04-15T11:23:21.588Z,24.40
2018-04-15T11:25:48.705Z,25.00
2018-04-15T11:28:15.056Z,24.90
2018-04-15T11:30:41.428Z,25.60
2018-04-15T11:33:07.723Z,25.70
2018-04-15T11:35:34.012Z,25.30
2018-04-15T11:38:00.346Z,25.40
2018-04-15T11:40:26.668Z,25.00
2018-04-15T11:42:52.941Z,24.90
2018-04-15T11:45:19.256Z,24.70
2018-04-15T11:47:45.533Z,25.30
2018-04-15T11:50:11.833Z,25.20
2018-04-15T11:52:38.163Z,25.50
2018-04-15T11:55:04.472Z,25.60
2018-04-15T11:57:30.914Z,24.90
2018-04-15T11:59:57.253Z,25.30
2018-04-15T12:02:23.597Z,25.50
2018-04-15T12:04:49.857Z,25.00
2018-04-15T12:07:16.164Z,25.40
2018-04-15T12:09:43.226Z,25.60
2018-04-15T12:12:10.408Z,25.50
2018-04-15T12:14:36.724Z,25.50
2018-04-15T12:17:03.049Z,25.30
2018-04-15T12:19:29.340Z,25.30
2018-04-15T12:21:56.112Z,25.20
2018-04-15T12:24:23.216Z,24.50
2018-04-15T12:26:49.692Z,24.50
2018-04-15T12:29:16.090Z,24.10
2018-04-15T12:31:42.465Z,24.90
2018-04-15T12:34:08.811Z,25.30
2018-04-15T12:36:35.102Z,27.50
2018-04-15T12:39:01.435Z,29.60
2018-04-15T12:41:27.717Z,31.30
2018-04-15T12:43:54.178Z,32.90
2018-04-15T12:46:20.480Z,34.70
2018-04-15T12:48:46.748Z,34.60
2018-04-15T12:51:13.201Z,36.60
2018-04-15T12:53:40.358Z,38.00
2018-04-15T12:56:08.775Z,37.90
2018-04-15T12:58:35.111Z,38.60
2018-04-15T13:01:02.539Z,40.10
2018-04-15T13:03:28.884Z,40.50
2018-04-15T13:05:55.293Z,39.80
2018-04-15T13:08:22.478Z,38.60
2018-04-15T13:10:49.625Z,38.60
2018-04-15T13:13:15.933Z,39.40
2018-04-15T13:15:43.062Z,39.10
2018-04-15T13:18:10.119Z,39.80
2018-04-15T13:20:36.456Z,39.80
2018-04-15T13:23:03.497Z,42.60
2018-04-15T13:25:30.551Z,42.80
2018-04-15T13:27:56.878Z,42.80
2018-04-15T13:30:23.224Z,43.90
2018-04-15T13:32:49.541Z,44.30
2018-04-15T13:35:16.585Z,44.80
2018-04-15T13:37:44.563Z,44.50
2018-04-15T13:40:11.011Z,44.40
2018-04-15T13:42:37.306Z,42.00
2018-04-15T13:45:03.741Z,40.10
2018-04-15T13:47:30.178Z,40.60
2018-04-15T13:49:56.533Z,40.60
2018-04-15T13:52:23.608Z,41.50
2018-04-15T13:54:49.909Z,41.50
2018-04-15T13:57:16.279Z,42.50
2018-04-15T13:59:42.557Z,39.80
2018-04-15T14:02:09.611Z,38.80
2018-04-15T14:04:36.631Z,38.60
2018-04-15T14:07:03.299Z,38.60
2018-04-15T14:09:30.602Z,38.80
2018-04-15T14:11:56.982Z,38.80
2018-04-15T14:14:23.279Z,38.60
2018-04-15T14:16:49.737Z,36.80
2018-04-15T14:19:16.801Z,33.70
2018-04-15T14:21:43.108Z,33.60
2018-04-15T14:24:10.197Z,32.90
2018-04-15T14:26:36.508Z,32.90
2018-04-15T14:29:02.786Z,33.80
2018-04-15T14:31:29.086Z,34.10
2018-04-15T14:33:55.403Z,36.90
2018-04-15T14:36:22.566Z,37.20
2018-04-15T14:38:49.622Z,37.20
2018-04-15T14:41:15.935Z,35.30
2018-04-15T14:43:43.002Z,33.20
2018-04-15T14:46:09.329Z,33.20
2018-04-15T14:48:35.746Z,30.80
2018-04-15T14:51:02.100Z,29.20
2018-04-15T14:53:28.489Z,29.60
2018-04-15T14:55:54.902Z,30.00
2018-04-15T14:58:22.859Z,28.50
2018-04-15T15:00:49.230Z,28.40
2018-04-15T15:03:15.527Z,27.70
2018-04-15T15:05:41.854Z,27.30
2018-04-15T15:08:08.975Z,26.70
2018-04-15T15:10:35.350Z,27.20
2018-04-15T15:13:02.136Z,26.90
2018-04-15T15:15:29.241Z,27.00
2018-04-15T15:17:55.908Z,27.00
2018-04-15T15:20:23.108Z,27.00
2018-04-15T15:22:49.525Z,26.90
2018-04-15T15:25:15.967Z,26.20
2018-04-15T15:27:42.305Z,25.70
2018-04-15T15:30:08.611Z,25.10
2018-04-15T15:32:35.124Z,24.90
2018-04-15T15:35:02.155Z,24.80
2018-04-15T15:37:28.655Z,24.70
2018-04-15T15:39:55.083Z,24.30
2018-04-15T15:42:21.383Z,23.80
2018-04-15T15:44:47.768Z,23.50
2018-04-15T15:47:14.243Z,23.30
2018-04-15T15:49:41.277Z,23.30
2018-04-15T15:52:07.964Z,23.30
2018-04-15T15:54:34.287Z,23.20
2018-04-15T15:57:00.659Z,23.10
2018-04-15T15:59:34.184Z,23.10
2018-04-15T16:02:01.282Z,22.90
2018-04-15T16:04:27.631Z,22.90
2018-04-15T16:06:53.983Z,22.80
2018-04-15T16:09:20.601Z,22.90
2018-04-15T16:11:46.938Z,23.10
2018-04-15T16:14:13.276Z,23.50
2018-04-15T16:16:39.631Z,23.60
2018-04-15T16:19:06.968Z,23.60
2018-04-15T16:21:33.556Z,23.50
2018-04-15T16:26:55.780Z,23.60
2018-04-15T16:29:23.148Z,24.70
2018-04-15T16:31:49.512Z,24.70
2018-04-15T16:34:15.919Z,24.40
2018-04-15T16:36:42.551Z,24.40
2018-04-15T16:39:09.747Z,24.00
2018-04-15T16:41:36.185Z,24.00
2018-04-15T16:44:02.664Z,23.90
2018-04-15T16:46:29.819Z,23.70
2018-04-15T16:48:57.062Z,23.50
2018-04-15T16:51:23.599Z,23.40
2018-04-15T16:53:50.809Z,23.60
2018-04-15T16:56:17.162Z,23.50
2018-04-15T16:58:43.611Z,23.20
2018-04-15T17:01:10.684Z,23.10
2018-04-15T17:03:36.973Z,23.10
2018-04-15T17:06:03.563Z,23.20
2018-04-15T17:08:29.883Z,23.00
2018-04-15T17:10:56.202Z,23.20
2018-04-15T17:13:23.223Z,23.30
2018-04-15T17:15:49.548Z,23.20
2018-04-15T17:18:15.975Z,22.90
2018-04-15T17:20:42.319Z,22.70
2018-04-15T17:23:08.656Z,22.40
2018-04-15T17:25:35.727Z,21.40
2018-04-15T17:28:02.074Z,21.30
2018-04-15T17:30:28.468Z,21.00
2018-04-15T17:32:54.795Z,20.70
2018-04-15T17:35:21.069Z,20.50
2018-04-15T17:37:47.363Z,20.20
2018-04-15T17:40:13.691Z,20.00
2018-04-15T17:42:40.037Z,19.90
2018-04-15T17:45:07.153Z,19.70
2018-04-15T17:47:33.457Z,19.70
2018-04-15T17:49:59.832Z,19.70
2018-04-15T17:52:26.150Z,19.60
2018-04-15T17:54:52.461Z,19.60
2018-04-15T17:57:18.735Z,19.60
2018-04-15T17:59:45.077Z,19.50
2018-04-15T18:02:12.187Z,19.30
2018-04-15T18:04:38.519Z,19.20
2018-04-15T18:07:04.842Z,19.20
2018-04-15T18:09:31.178Z,19.10
2018-04-15T18:11:57.636Z,19.00
2018-04-15T18:14:24.311Z,18.90
2018-04-15T18:16:50.779Z,18.80
2018-04-15T18:19:17.275Z,18.70
2018-04-15T18:21:43.733Z,18.60
2018-04-15T18:24:10.021Z,18.50
2018-04-15T18:26:37.134Z,18.30
2018-04-15T18:29:04.259Z,18.20
2018-04-15T18:31:30.592Z,18.10
2018-04-15T18:33:56.929Z,18.00
2018-04-15T18:36:23.231Z,18.00
2018-04-15T18:38:50.409Z,17.90
2018-04-15T18:41:16.674Z,17.90
2018-04-15T18:43:43.143Z,17.80
2018-04-15T18:46:09.557Z,17.70
2018-04-15T18:48:36.149Z,17.60
2018-04-15T18:51:02.587Z,17.60
2018-04-15T18:53:28.973Z,17.50
2018-04-15T18:55:56.069Z,17.30
2018-04-15T18:58:22.419Z,17.30
2018-04-15T19:00:48.751Z,17.30
2018-04-15T19:03:15.820Z,17.10
2018-04-15T19:05:42.203Z,17.10
2018-04-15T19:08:08.640Z,17.00
2018-04-15T19:10:34.984Z,16.80
2018-04-15T19:13:01.337Z,16.70
2018-04-15T19:15:27.655Z,16.50
2018-04-15T19:17:54.082Z,16.30
2018-04-15T19:20:20.554Z,16.30
2018-04-15T19:22:46.924Z,16.30
2018-04-15T19:25:13.286Z,16.30
2018-04-15T19:27:39.725Z,16.30
2018-04-15T19:30:06.858Z,16.30
2018-04-15T19:32:33.498Z,16.20
2018-04-15T19:34:59.827Z,16.20
2018-04-15T19:37:26.334Z,16.20
2018-04-15T19:39:52.840Z,16.00
2018-04-15T19:42:19.386Z,15.90
2018-04-15T19:44:45.922Z,15.80
2018-04-15T19:47:12.429Z,15.80
2018-04-15T19:49:38.877Z,15.70
2018-04-15T19:52:05.297Z,15.70
2018-04-15T19:54:31.820Z,15.70
2018-04-15T19:56:58.440Z,15.70
2018-04-15T19:59:25.536Z,15.60
2018-04-15T20:01:51.999Z,15.60
2018-04-15T20:04:18.402Z,15.60
2018-04-15T20:06:44.817Z,15.50
2018-04-15T20:09:11.382Z,15.50
2018-04-15T20:11:38.450Z,15.40
2018-04-15T20:14:04.955Z,15.40
2018-04-15T20:16:31.570Z,15.40
2018-04-15T20:18:58.136Z,15.40
2018-04-15T20:21:24.490Z,15.40
2018-04-15T20:23:50.964Z,15.40
2018-04-15T20:26:17.306Z,15.40
2018-04-15T20:28:43.734Z,15.40
2018-04-15T20:31:10.141Z,15.30
2018-04-15T20:33:36.464Z,15.20
2018-04-15T20:36:02.846Z,15.20
2018-04-15T20:38:29.236Z,15.20
2018-04-15T20:40:55.641Z,15.20
2018-04-15T20:43:22.000Z,15.20
2018-04-15T20:45:48.356Z,15.30
2018-04-15T20:48:14.778Z,15.30
2018-04-15T20:50:41.545Z,15.30
2018-04-15T20:53:07.988Z,15.40
2018-04-15T20:55:34.374Z,15.40
2018-04-15T20:58:00.835Z,15.40
2018-04-15T21:00:27.147Z,15.40
2018-04-15T21:02:53.475Z,15.40
2018-04-15T21:05:19.874Z,15.40
2018-04-15T21:07:46.522Z,15.40
2018-04-15T21:10:12.842Z,15.40
2018-04-15T21:12:39.882Z,15.50
2018-04-15T21:15:07.138Z,15.50
2018-04-15T21:17:34.237Z,15.50
2018-04-15T21:20:00.557Z,15.50
2018-04-15T21:22:26.858Z,15.60
2018-04-15T21:24:53.537Z,15.60
2018-04-15T21:27:19.838Z,15.60
2018-04-15T21:29:47.026Z,15.70
2018-04-15T21:32:13.445Z,15.70
2018-04-15T21:34:39.868Z,15.70
2018-04-15T21:37:06.187Z,15.70
2018-04-15T21:39:33.327Z,15.60
2018-04-15T21:41:59.679Z,15.60
2018-04-15T21:44:26.005Z,15.60
2018-04-15T21:46:52.305Z,15.60
2018-04-15T21:49:18.753Z,15.60
2018-04-15T21:51:45.105Z,15.70
2018-04-15T21:54:11.490Z,15.70
2018-04-15T21:56:37.753Z,15.70
2018-04-15T21:59:04.967Z,15.40
2018-04-15T22:01:31.240Z,15.40
2018-04-15T22:03:57.560Z,15.40
2018-04-15T22:06:24.676Z,15.30
2018-04-15T22:08:50.984Z,15.30
2018-04-15T22:11:17.375Z,15.40
2018-04-15T22:13:44.465Z,15.40
2018-04-15T22:16:10.897Z,15.40
2018-04-15T22:18:37.261Z,15.50
2018-04-15T22:21:03.560Z,15.60
2018-04-15T22:23:29.926Z,15.50
2018-04-15T22:25:56.253Z,15.40
2018-04-15T22:28:22.556Z,15.20
2018-04-15T22:30:48.922Z,15.20
2018-04-15T22:33:15.712Z,15.30
2018-04-15T22:35:42.227Z,15.30
2018-04-15T22:38:09.276Z,15.30
2018-04-15T22:40:36.341Z,15.50
2018-04-15T22:43:02.648Z,15.40
2018-04-15T22:45:29.004Z,15.50
2018-04-15T22:48:01.699Z,15.60
2018-04-15T22:50:34.312Z,15.70
2018-04-15T22:53:01.053Z,15.70
2018-04-15T22:55:27.465Z,15.80
2018-04-15T22:57:53.719Z,15.80
2018-04-15T23:00:20.107Z,15.80
2018-04-15T23:02:46.418Z,15.60
2018-04-15T23:05:13.678Z,15.60
2018-04-15T23:07:40.064Z,15.60
2018-04-15T23:10:06.628Z,15.50
2018-04-15T23:12:33.773Z,15.20
2018-04-15T23:15:00.893Z,15.20
2018-04-15T23:17:27.167Z,15.10
2018-04-15T23:19:54.295Z,15.00
2018-04-15T23:22:20.609Z,15.00
2018-04-15T23:24:47.018Z,15.00
2018-04-15T23:27:13.320Z,15.00
2018-04-15T23:29:39.692Z,15.00
2018-04-15T23:32:06.002Z,15.10
2018-04-15T23:34:32.320Z,15.00
2018-04-15T23:36:58.643Z,15.10
2018-04-15T23:39:24.987Z,15.20
2018-04-15T23:41:51.276Z,15.20
2018-04-15T23:44:17.647Z,15.30
2018-04-15T23:46:44.015Z,15.30
2018-04-15T23:49:10.332Z,15.40
2018-04-15T23:51:36.601Z,15.50
2018-04-15T23:54:02.903Z,15.50
2018-04-15T23:56:29.165Z,15.40
2018-04-15T23:58:55.429Z,15.40
